EUFO2: Eufaula Lake

Data processed at Fri Dec 08 2017 23:09


All information presented herein is the property of the government of the United States of America and may be revised or deleted at any time without prior notice.
Dissemination of this information without the expressed written consent of the Public Affairs Office, Tulsa District U.S. Army Corps of Engineers is strictly prohibited.
These data are gathered electronically and, as presented, have not undergone any form of quality control. These data are not guaranteed to be valid or correct.
Go to home page.
Go to station list.

Upstream stations:

Downstream station:
Previous Day
Next Day
Current Day
    
SHEF ID:       EUFO2     Eufaula Lake
STATION TYPE:  RESERVOIR
Normal Pool:  Bottom =   565.00, Top =   585.00

               PRECIP ELEVATION   STORAGE   TW-ELEV    INFLOW   RELEASE  AIR-TEMP  WIND-DIRWIND-SPEED REL-HUMID SOLAR-RAD   VOLTAGE  BAT-LOAD
                   in        ft     ac-ft        ft       cfs       cfs         F       deg       mph         %      W/m2      volt      volt
              Ccp-Rev   Ccp-Rev   Ccp-Rev   Ccp-Rev  Regi-Rev  Regi-Rev   Ccp-Rev   Ccp-Rev   Ccp-Rev   Ccp-Rev   Ccp-Rev   Ccp-Rev   Ccp-Rev
(US/Central)
12/06 00:00      0.00    583.63   2069197    485.62       499         0     40.44    242.00      2.87     49.02      0.00     13.74     13.53
12/06 01:00      0.00    583.61   2067404    484.87        53         0     38.25    230.40      2.77     50.49      0.00     13.74     13.53
12/06 02:00      0.00    583.62   2068300    484.32        53         0     38.03    116.40      1.06     58.91      0.00     13.74     13.53
12/06 03:00      0.00    583.60   2066507    483.92        53         0     43.09    253.30      2.99     49.88      0.00     13.73     13.53
12/06 04:00      0.00    583.59   2065611    483.59        94         0     42.08    282.00      2.67     48.60      0.00     13.73     13.53
12/06 05:00      0.00    583.60   2066507    483.35        82         0     40.57    249.30      5.39     47.14      0.00     13.73     13.53
12/06 06:00      0.00    583.58   2064715    484.32       122       687     37.69    147.20      0.81     47.68      0.00     13.73     13.53
12/06 07:00      0.00    583.56   2062922    487.91       373     12075     36.48    118.70      1.47     55.74      0.00     13.73     13.53
12/06 08:00      0.00    583.58   2064715    488.78       623     12270     34.95    127.60      0.77     74.24      7.00     13.73     13.53
12/06 09:00      0.00    583.60   2066507    489.03       660     12120     44.94    200.50      0.60     45.24     94.00     13.73     13.53
12/06 10:00      0.00    583.57   2063818    489.18       619     12420     45.50    284.30      7.15     38.46    267.00     13.73     13.53
12/06 11:00      0.00    583.57   2063818    488.93       581     12270     44.73    303.50      1.29     40.66    439.00     13.73     13.53
12/06 12:00      0.00    583.57   2063818    488.94       334     12420     46.49    297.70      1.93     37.91    275.00     13.73     13.53
12/06 13:00      0.00    583.56   2062922    486.68        86       462     47.80    273.60      3.90     36.39    416.00     13.73     13.53
12/06 14:00      0.00    583.52   2059336    485.57        64         0     50.32    258.90      3.36     38.40    481.00     13.74     13.53
12/06 15:00      0.00    583.54   2061129    484.82        64         0     52.75    263.80      3.36     35.47    411.00     13.74     13.53
12/06 16:00      0.00    583.55   2062025    484.29        62         0     54.84    276.60      3.77     29.98    291.00     13.74     13.53
12/06 17:00      0.00    583.53   2060233    484.64        70       229     53.85    348.80      0.53     33.95     94.00     13.74     13.53
12/06 18:00      0.00    583.52   2059336    488.01        78     12075     51.76    332.30      1.57     34.43      2.00     13.74     13.53
12/06 19:00      0.00    583.52   2059336    488.74        32     12270     49.57    335.70      1.38     38.71      0.00     13.74     13.53
12/06 20:00      0.00    583.51   2058440    489.05        32     12270     47.37    339.20      1.98     44.57      0.00     13.74     13.42
12/06 21:00      0.00    583.49   2056647    488.98        32     12270     45.05    342.00      1.39     45.79      0.00     13.74     13.36
12/06 22:00      0.00    583.52   2059336    486.67        22       231     42.85    325.20      0.93     52.01      0.00     13.74     13.53
12/06 23:00      0.00    583.51   2058440    485.57        11         0     42.42    338.20      1.13     50.79      0.00     13.74     13.53